sensor_id;sensor_type;location;lat;lon;timestamp;P1;durP1;ratioP1;P2;durP2;ratioP2
58071;SDS011;60383;46.626;18.866;2023-03-31T00:01:26;4.60;;;3.53;;
58071;SDS011;60383;46.626;18.866;2023-03-31T00:03:52;5.93;;;3.97;;
58071;SDS011;60383;46.626;18.866;2023-03-31T00:06:30;4.88;;;3.60;;
58071;SDS011;60383;46.626;18.866;2023-03-31T00:09:02;5.40;;;3.50;;
58071;SDS011;60383;46.626;18.866;2023-03-31T00:11:32;3.83;;;3.50;;
58071;SDS011;60383;46.626;18.866;2023-03-31T00:13:57;4.70;;;4.07;;
58071;SDS011;60383;46.626;18.866;2023-03-31T00:16:23;6.82;;;3.78;;
58071;SDS011;60383;46.626;18.866;2023-03-31T00:18:49;5.47;;;3.80;;
58071;SDS011;60383;46.626;18.866;2023-03-31T00:21:19;5.10;;;3.90;;
58071;SDS011;60383;46.626;18.866;2023-03-31T00:23:57;6.72;;;3.80;;
58071;SDS011;60383;46.626;18.866;2023-03-31T00:26:24;4.47;;;3.80;;
58071;SDS011;60383;46.626;18.866;2023-03-31T00:28:50;4.32;;;3.83;;
58071;SDS011;60383;46.626;18.866;2023-03-31T00:31:17;5.43;;;4.10;;
58071;SDS011;60383;46.626;18.866;2023-03-31T00:33:43;5.68;;;4.00;;
58071;SDS011;60383;46.626;18.866;2023-03-31T00:36:09;4.97;;;3.70;;
58071;SDS011;60383;46.626;18.866;2023-03-31T00:38:34;5.47;;;4.05;;
58071;SDS011;60383;46.626;18.866;2023-03-31T00:41:00;5.97;;;4.43;;
58071;SDS011;60383;46.626;18.866;2023-03-31T00:43:34;4.82;;;3.97;;
58071;SDS011;60383;46.626;18.866;2023-03-31T00:49:00;4.75;;;3.97;;
58071;SDS011;60383;46.626;18.866;2023-03-31T00:51:26;5.50;;;4.25;;
58071;SDS011;60383;46.626;18.866;2023-03-31T00:53:56;5.50;;;3.83;;
58071;SDS011;60383;46.626;18.866;2023-03-31T00:56:27;5.47;;;4.28;;
58071;SDS011;60383;46.626;18.866;2023-03-31T00:58:56;5.47;;;3.88;;
58071;SDS011;60383;46.626;18.866;2023-03-31T01:03:54;5.57;;;4.10;;
58071;SDS011;60383;46.626;18.866;2023-03-31T01:06:21;6.25;;;4.93;;
58071;SDS011;60383;46.626;18.866;2023-03-31T01:08:50;4.28;;;3.88;;
58071;SDS011;60383;46.626;18.866;2023-03-31T01:11:17;4.93;;;3.75;;
58071;SDS011;60383;46.626;18.866;2023-03-31T01:13:44;4.72;;;4.05;;
58071;SDS011;60383;46.626;18.866;2023-03-31T01:16:14;4.55;;;4.13;;
58071;SDS011;60383;46.626;18.866;2023-03-31T01:18:40;5.25;;;3.83;;
58071;SDS011;60383;46.626;18.866;2023-03-31T01:21:17;3.83;;;3.00;;
58071;SDS011;60383;46.626;18.866;2023-03-31T01:41:07;6.38;;;3.53;;
58071;SDS011;60383;46.626;18.866;2023-03-31T01:43:28;5.85;;;4.05;;
58071;SDS011;60383;46.626;18.866;2023-03-31T01:48:48;4.00;;;3.65;;
58071;SDS011;60383;46.626;18.866;2023-03-31T01:56:54;6.43;;;4.20;;
58071;SDS011;60383;46.626;18.866;2023-03-31T01:59:26;4.30;;;3.90;;
58071;SDS011;60383;46.626;18.866;2023-03-31T02:01:58;5.20;;;3.83;;
58071;SDS011;60383;46.626;18.866;2023-03-31T02:04:32;5.63;;;3.85;;
58071;SDS011;60383;46.626;18.866;2023-03-31T02:07:02;5.97;;;3.90;;
58071;SDS011;60383;46.626;18.866;2023-03-31T02:09:33;6.05;;;4.32;;
58071;SDS011;60383;46.626;18.866;2023-03-31T02:12:06;5.05;;;3.72;;
58071;SDS011;60383;46.626;18.866;2023-03-31T02:14:35;5.82;;;4.07;;
58071;SDS011;60383;46.626;18.866;2023-03-31T02:17:03;5.80;;;4.07;;
58071;SDS011;60383;46.626;18.866;2023-03-31T02:19:33;5.82;;;4.05;;
58071;SDS011;60383;46.626;18.866;2023-03-31T02:22:03;5.82;;;3.78;;
58071;SDS011;60383;46.626;18.866;2023-03-31T02:24:31;4.45;;;3.63;;
58071;SDS011;60383;46.626;18.866;2023-03-31T02:27:11;5.18;;;4.00;;
58071;SDS011;60383;46.626;18.866;2023-03-31T02:29:43;4.43;;;3.65;;
58071;SDS011;60383;46.626;18.866;2023-03-31T02:34:40;5.43;;;3.63;;
58071;SDS011;60383;46.626;18.866;2023-03-31T02:37:06;6.05;;;4.07;;
58071;SDS011;60383;46.626;18.866;2023-03-31T02:39:33;5.82;;;4.03;;
58071;SDS011;60383;46.626;18.866;2023-03-31T02:42:01;5.80;;;3.85;;
58071;SDS011;60383;46.626;18.866;2023-03-31T02:44:34;6.03;;;3.88;;
58071;SDS011;60383;46.626;18.866;2023-03-31T02:47:01;6.93;;;3.85;;
58071;SDS011;60383;46.626;18.866;2023-03-31T02:49:30;5.18;;;3.97;;
58071;SDS011;60383;46.626;18.866;2023-03-31T02:54:47;5.63;;;3.85;;
58071;SDS011;60383;46.626;18.866;2023-03-31T03:05:27;7.13;;;4.20;;
58071;SDS011;60383;46.626;18.866;2023-03-31T03:16:56;6.70;;;5.43;;
58071;SDS011;60383;46.626;18.866;2023-03-31T03:19:26;6.60;;;5.25;;
58071;SDS011;60383;46.626;18.866;2023-03-31T03:21:52;5.75;;;5.13;;
58071;SDS011;60383;46.626;18.866;2023-03-31T03:24:18;5.93;;;4.40;;
58071;SDS011;60383;46.626;18.866;2023-03-31T03:26:44;6.97;;;5.03;;
58071;SDS011;60383;46.626;18.866;2023-03-31T03:29:11;4.93;;;4.30;;
58071;SDS011;60383;46.626;18.866;2023-03-31T03:31:40;6.05;;;4.20;;
58071;SDS011;60383;46.626;18.866;2023-03-31T03:34:06;4.97;;;3.80;;
58071;SDS011;60383;46.626;18.866;2023-03-31T03:36:34;8.57;;;4.10;;
58071;SDS011;60383;46.626;18.866;2023-03-31T03:39:02;6.25;;;3.97;;
58071;SDS011;60383;46.626;18.866;2023-03-31T03:41:29;7.13;;;5.50;;
58071;SDS011;60383;46.626;18.866;2023-03-31T03:43:55;5.40;;;4.10;;
58071;SDS011;60383;46.626;18.866;2023-03-31T03:46:21;8.68;;;4.38;;
58071;SDS011;60383;46.626;18.866;2023-03-31T03:48:46;6.93;;;3.90;;
58071;SDS011;60383;46.626;18.866;2023-03-31T03:51:12;6.35;;;4.50;;
58071;SDS011;60383;46.626;18.866;2023-03-31T03:53:37;6.22;;;4.72;;
58071;SDS011;60383;46.626;18.866;2023-03-31T03:56:03;6.18;;;4.50;;
58071;SDS011;60383;46.626;18.866;2023-03-31T03:58:28;12.90;;;11.45;;
58071;SDS011;60383;46.626;18.866;2023-03-31T04:00:54;8.52;;;4.47;;
58071;SDS011;60383;46.626;18.866;2023-03-31T04:03:21;5.38;;;3.75;;
58071;SDS011;60383;46.626;18.866;2023-03-31T04:05:46;5.78;;;3.90;;
58071;SDS011;60383;46.626;18.866;2023-03-31T04:08:16;6.55;;;4.28;;
58071;SDS011;60383;46.626;18.866;2023-03-31T04:10:46;6.93;;;4.82;;
58071;SDS011;60383;46.626;18.866;2023-03-31T04:13:16;9.50;;;4.75;;
58071;SDS011;60383;46.626;18.866;2023-03-31T04:15:42;6.32;;;4.72;;
58071;SDS011;60383;46.626;18.866;2023-03-31T04:18:08;5.65;;;4.50;;
58071;SDS011;60383;46.626;18.866;2023-03-31T04:20:35;6.78;;;4.10;;
58071;SDS011;60383;46.626;18.866;2023-03-31T04:23:02;5.78;;;3.80;;
58071;SDS011;60383;46.626;18.866;2023-03-31T04:25:30;5.75;;;5.15;;
58071;SDS011;60383;46.626;18.866;2023-03-31T04:27:55;4.63;;;4.03;;
58071;SDS011;60383;46.626;18.866;2023-03-31T04:30:21;6.90;;;4.50;;
58071;SDS011;60383;46.626;18.866;2023-03-31T04:32:54;11.27;;;4.28;;
58071;SDS011;60383;46.626;18.866;2023-03-31T04:35:23;7.07;;;4.47;;
58071;SDS011;60383;46.626;18.866;2023-03-31T04:37:50;6.90;;;4.07;;
58071;SDS011;60383;46.626;18.866;2023-03-31T04:40:22;5.82;;;4.00;;
58071;SDS011;60383;46.626;18.866;2023-03-31T04:42:48;6.38;;;4.50;;
58071;SDS011;60383;46.626;18.866;2023-03-31T04:45:14;7.70;;;4.60;;
58071;SDS011;60383;46.626;18.866;2023-03-31T04:47:39;6.25;;;4.13;;
58071;SDS011;60383;46.626;18.866;2023-03-31T04:50:06;6.65;;;4.28;;
58071;SDS011;60383;46.626;18.866;2023-03-31T04:52:32;7.35;;;4.30;;
58071;SDS011;60383;46.626;18.866;2023-03-31T04:54:58;5.15;;;3.67;;
58071;SDS011;60383;46.626;18.866;2023-03-31T04:57:23;7.32;;;3.50;;
58071;SDS011;60383;46.626;18.866;2023-03-31T04:59:48;8.13;;;4.53;;
58071;SDS011;60383;46.626;18.866;2023-03-31T05:02:14;7.55;;;5.30;;
58071;SDS011;60383;46.626;18.866;2023-03-31T05:04:47;6.45;;;4.90;;
58071;SDS011;60383;46.626;18.866;2023-03-31T05:07:12;7.47;;;4.70;;
58071;SDS011;60383;46.626;18.866;2023-03-31T05:09:38;5.80;;;4.20;;
58071;SDS011;60383;46.626;18.866;2023-03-31T05:12:03;7.15;;;4.55;;
58071;SDS011;60383;46.626;18.866;2023-03-31T05:14:29;6.53;;;4.28;;
58071;SDS011;60383;46.626;18.866;2023-03-31T05:16:54;6.00;;;3.90;;
58071;SDS011;60383;46.626;18.866;2023-03-31T05:19:22;5.88;;;3.42;;
58071;SDS011;60383;46.626;18.866;2023-03-31T05:21:47;5.65;;;4.07;;
58071;SDS011;60383;46.626;18.866;2023-03-31T05:24:13;5.43;;;3.72;;
58071;SDS011;60383;46.626;18.866;2023-03-31T05:26:38;5.47;;;3.60;;
58071;SDS011;60383;46.626;18.866;2023-03-31T05:29:05;8.38;;;4.22;;
58071;SDS011;60383;46.626;18.866;2023-03-31T05:31:31;6.50;;;4.25;;
58071;SDS011;60383;46.626;18.866;2023-03-31T05:33:56;5.32;;;4.05;;
58071;SDS011;60383;46.626;18.866;2023-03-31T05:36:22;6.47;;;4.50;;
58071;SDS011;60383;46.626;18.866;2023-03-31T05:38:47;6.95;;;4.30;;
58071;SDS011;60383;46.626;18.866;2023-03-31T05:41:13;7.43;;;4.38;;
58071;SDS011;60383;46.626;18.866;2023-03-31T05:43:40;8.25;;;6.05;;
58071;SDS011;60383;46.626;18.866;2023-03-31T05:46:07;6.68;;;4.63;;
58071;SDS011;60383;46.626;18.866;2023-03-31T05:48:33;8.93;;;5.60;;
58071;SDS011;60383;46.626;18.866;2023-03-31T05:50:59;8.68;;;5.43;;
58071;SDS011;60383;46.626;18.866;2023-03-31T05:53:26;8.38;;;4.70;;
58071;SDS011;60383;46.626;18.866;2023-03-31T05:56:01;7.22;;;5.05;;
58071;SDS011;60383;46.626;18.866;2023-03-31T05:58:29;8.48;;;5.32;;
58071;SDS011;60383;46.626;18.866;2023-03-31T06:03:36;7.78;;;4.35;;
58071;SDS011;60383;46.626;18.866;2023-03-31T06:06:03;5.50;;;4.25;;
58071;SDS011;60383;46.626;18.866;2023-03-31T06:08:32;8.02;;;4.57;;
58071;SDS011;60383;46.626;18.866;2023-03-31T06:10:59;5.93;;;3.53;;
58071;SDS011;60383;46.626;18.866;2023-03-31T06:13:24;5.20;;;3.90;;
58071;SDS011;60383;46.626;18.866;2023-03-31T06:15:56;5.82;;;3.88;;
58071;SDS011;60383;46.626;18.866;2023-03-31T06:18:23;5.75;;;4.20;;
58071;SDS011;60383;46.626;18.866;2023-03-31T06:20:49;3.90;;;3.50;;
58071;SDS011;60383;46.626;18.866;2023-03-31T06:23:16;7.38;;;3.85;;
58071;SDS011;60383;46.626;18.866;2023-03-31T06:25:41;5.32;;;3.60;;
58071;SDS011;60383;46.626;18.866;2023-03-31T06:28:07;4.70;;;3.50;;
58071;SDS011;60383;46.626;18.866;2023-03-31T06:30:33;4.05;;;3.30;;
58071;SDS011;60383;46.626;18.866;2023-03-31T06:32:59;5.95;;;3.60;;
58071;SDS011;60383;46.626;18.866;2023-03-31T06:35:24;4.95;;;3.50;;
58071;SDS011;60383;46.626;18.866;2023-03-31T06:37:50;6.50;;;3.45;;
58071;SDS011;60383;46.626;18.866;2023-03-31T06:40:15;6.50;;;3.78;;
58071;SDS011;60383;46.626;18.866;2023-03-31T06:42:41;9.30;;;5.25;;
58071;SDS011;60383;46.626;18.866;2023-03-31T06:45:06;4.75;;;3.40;;
58071;SDS011;60383;46.626;18.866;2023-03-31T06:47:32;5.80;;;3.80;;
58071;SDS011;60383;46.626;18.866;2023-03-31T06:49:58;5.68;;;3.63;;
58071;SDS011;60383;46.626;18.866;2023-03-31T06:52:23;6.57;;;3.03;;
58071;SDS011;60383;46.626;18.866;2023-03-31T06:54:50;5.80;;;3.30;;
58071;SDS011;60383;46.626;18.866;2023-03-31T06:57:15;4.75;;;2.80;;
58071;SDS011;60383;46.626;18.866;2023-03-31T06:59:41;4.25;;;3.25;;
58071;SDS011;60383;46.626;18.866;2023-03-31T07:02:07;6.30;;;3.00;;
58071;SDS011;60383;46.626;18.866;2023-03-31T07:04:34;4.22;;;2.92;;
58071;SDS011;60383;46.626;18.866;2023-03-31T07:07:00;6.93;;;3.10;;
58071;SDS011;60383;46.626;18.866;2023-03-31T07:09:25;7.28;;;3.40;;
58071;SDS011;60383;46.626;18.866;2023-03-31T07:11:51;7.22;;;3.05;;
58071;SDS011;60383;46.626;18.866;2023-03-31T07:14:16;5.93;;;2.70;;
58071;SDS011;60383;46.626;18.866;2023-03-31T07:16:42;6.15;;;2.85;;
58071;SDS011;60383;46.626;18.866;2023-03-31T07:19:07;5.68;;;2.47;;
58071;SDS011;60383;46.626;18.866;2023-03-31T07:21:34;4.63;;;2.72;;
58071;SDS011;60383;46.626;18.866;2023-03-31T07:24:00;5.95;;;2.97;;
58071;SDS011;60383;46.626;18.866;2023-03-31T07:26:26;2.95;;;2.50;;
58071;SDS011;60383;46.626;18.866;2023-03-31T07:28:51;5.88;;;3.00;;
58071;SDS011;60383;46.626;18.866;2023-03-31T07:31:20;6.70;;;4.15;;
58071;SDS011;60383;46.626;18.866;2023-03-31T07:33:46;7.43;;;3.60;;
58071;SDS011;60383;46.626;18.866;2023-03-31T07:36:12;7.00;;;3.95;;
58071;SDS011;60383;46.626;18.866;2023-03-31T07:38:38;6.63;;;3.05;;
58071;SDS011;60383;46.626;18.866;2023-03-31T07:41:05;6.80;;;2.65;;
58071;SDS011;60383;46.626;18.866;2023-03-31T07:43:34;4.40;;;2.90;;
58071;SDS011;60383;46.626;18.866;2023-03-31T07:46:00;5.32;;;2.92;;
58071;SDS011;60383;46.626;18.866;2023-03-31T07:48:25;10.00;;;3.78;;
58071;SDS011;60383;46.626;18.866;2023-03-31T07:50:53;4.90;;;3.15;;
58071;SDS011;60383;46.626;18.866;2023-03-31T07:53:18;6.63;;;3.00;;
58071;SDS011;60383;46.626;18.866;2023-03-31T07:55:45;12.48;;;4.30;;
58071;SDS011;60383;46.626;18.866;2023-03-31T07:58:11;10.32;;;3.10;;
58071;SDS011;60383;46.626;18.866;2023-03-31T08:00:37;7.25;;;2.63;;
58071;SDS011;60383;46.626;18.866;2023-03-31T08:03:02;9.85;;;3.65;;
58071;SDS011;60383;46.626;18.866;2023-03-31T08:05:28;7.55;;;3.60;;
58071;SDS011;60383;46.626;18.866;2023-03-31T08:07:53;10.15;;;3.40;;
58071;SDS011;60383;46.626;18.866;2023-03-31T08:10:21;4.30;;;2.80;;
58071;SDS011;60383;46.626;18.866;2023-03-31T08:12:48;6.55;;;3.53;;
58071;SDS011;60383;46.626;18.866;2023-03-31T08:15:14;4.18;;;2.40;;
58071;SDS011;60383;46.626;18.866;2023-03-31T08:17:40;4.32;;;2.50;;
58071;SDS011;60383;46.626;18.866;2023-03-31T08:20:06;4.45;;;2.47;;
58071;SDS011;60383;46.626;18.866;2023-03-31T08:22:33;4.72;;;2.53;;
58071;SDS011;60383;46.626;18.866;2023-03-31T08:24:58;4.63;;;2.75;;
58071;SDS011;60383;46.626;18.866;2023-03-31T08:27:24;4.95;;;2.60;;
58071;SDS011;60383;46.626;18.866;2023-03-31T08:29:50;2.45;;;2.00;;
58071;SDS011;60383;46.626;18.866;2023-03-31T08:32:15;4.47;;;2.30;;
58071;SDS011;60383;46.626;18.866;2023-03-31T08:34:41;3.90;;;2.42;;
58071;SDS011;60383;46.626;18.866;2023-03-31T08:37:07;4.13;;;2.10;;
58071;SDS011;60383;46.626;18.866;2023-03-31T08:39:33;5.53;;;2.63;;
58071;SDS011;60383;46.626;18.866;2023-03-31T08:42:25;4.13;;;2.47;;
58071;SDS011;60383;46.626;18.866;2023-03-31T08:45:04;3.60;;;2.08;;
58071;SDS011;60383;46.626;18.866;2023-03-31T08:47:34;3.63;;;1.85;;
58071;SDS011;60383;46.626;18.866;2023-03-31T08:50:10;8.02;;;2.10;;
58071;SDS011;60383;46.626;18.866;2023-03-31T08:52:43;4.45;;;2.10;;
58071;SDS011;60383;46.626;18.866;2023-03-31T08:55:18;3.30;;;1.92;;
58071;SDS011;60383;46.626;18.866;2023-03-31T08:57:57;2.08;;;1.60;;
58071;SDS011;60383;46.626;18.866;2023-03-31T09:00:29;2.90;;;2.00;;
58071;SDS011;60383;46.626;18.866;2023-03-31T09:03:24;4.68;;;2.67;;
58071;SDS011;60383;46.626;18.866;2023-03-31T09:06:05;3.30;;;2.17;;
58071;SDS011;60383;46.626;18.866;2023-03-31T09:08:36;3.72;;;1.77;;
58071;SDS011;60383;46.626;18.866;2023-03-31T09:11:37;4.90;;;2.20;;
58071;SDS011;60383;46.626;18.866;2023-03-31T09:21:55;3.58;;;1.95;;
58071;SDS011;60383;46.626;18.866;2023-03-31T09:24:32;3.90;;;2.42;;
58071;SDS011;60383;46.626;18.866;2023-03-31T09:27:01;4.72;;;1.90;;
58071;SDS011;60383;46.626;18.866;2023-03-31T09:29:30;2.78;;;1.48;;
58071;SDS011;60383;46.626;18.866;2023-03-31T09:32:18;3.38;;;1.80;;
58071;SDS011;60383;46.626;18.866;2023-03-31T09:34:52;3.88;;;1.70;;
58071;SDS011;60383;46.626;18.866;2023-03-31T09:37:21;3.72;;;1.55;;
58071;SDS011;60383;46.626;18.866;2023-03-31T09:39:49;3.42;;;1.52;;
58071;SDS011;60383;46.626;18.866;2023-03-31T09:42:14;3.10;;;1.73;;
58071;SDS011;60383;46.626;18.866;2023-03-31T09:44:42;2.45;;;1.20;;
58071;SDS011;60383;46.626;18.866;2023-03-31T09:47:31;2.63;;;1.63;;
58071;SDS011;60383;46.626;18.866;2023-03-31T09:50:05;3.55;;;1.70;;
58071;SDS011;60383;46.626;18.866;2023-03-31T09:52:32;4.68;;;1.90;;
58071;SDS011;60383;46.626;18.866;2023-03-31T09:55:02;2.13;;;1.90;;
58071;SDS011;60383;46.626;18.866;2023-03-31T09:57:35;3.45;;;1.48;;
58071;SDS011;60383;46.626;18.866;2023-03-31T10:02:39;3.63;;;1.83;;
58071;SDS011;60383;46.626;18.866;2023-03-31T10:05:17;3.45;;;1.70;;
58071;SDS011;60383;46.626;18.866;2023-03-31T10:07:48;3.55;;;1.58;;
58071;SDS011;60383;46.626;18.866;2023-03-31T10:10:47;3.17;;;1.70;;
58071;SDS011;60383;46.626;18.866;2023-03-31T10:13:09;2.08;;;1.30;;
58071;SDS011;60383;46.626;18.866;2023-03-31T10:15:40;4.05;;;1.50;;
58071;SDS011;60383;46.626;18.866;2023-03-31T10:18:10;2.78;;;1.65;;
58071;SDS011;60383;46.626;18.866;2023-03-31T10:20:42;3.42;;;1.70;;
58071;SDS011;60383;46.626;18.866;2023-03-31T10:23:16;3.08;;;1.80;;
58071;SDS011;60383;46.626;18.866;2023-03-31T10:25:52;3.42;;;1.65;;
58071;SDS011;60383;46.626;18.866;2023-03-31T10:28:19;3.47;;;1.83;;
58071;SDS011;60383;46.626;18.866;2023-03-31T10:30:49;3.72;;;1.80;;
58071;SDS011;60383;46.626;18.866;2023-03-31T10:33:21;7.15;;;2.00;;
58071;SDS011;60383;46.626;18.866;2023-03-31T10:36:06;3.70;;;1.52;;
58071;SDS011;60383;46.626;18.866;2023-03-31T10:38:37;2.53;;;1.65;;
58071;SDS011;60383;46.626;18.866;2023-03-31T10:41:07;5.32;;;1.83;;
58071;SDS011;60383;46.626;18.866;2023-03-31T10:43:38;2.63;;;1.75;;
58071;SDS011;60383;46.626;18.866;2023-03-31T10:46:04;7.80;;;1.90;;
58071;SDS011;60383;46.626;18.866;2023-03-31T10:48:30;3.53;;;1.60;;
58071;SDS011;60383;46.626;18.866;2023-03-31T10:50:59;3.22;;;1.80;;
58071;SDS011;60383;46.626;18.866;2023-03-31T10:53:28;2.30;;;1.77;;
58071;SDS011;60383;46.626;18.866;2023-03-31T11:06:16;4.70;;;1.80;;
58071;SDS011;60383;46.626;18.866;2023-03-31T11:09:03;2.70;;;1.48;;
58071;SDS011;60383;46.626;18.866;2023-03-31T11:16:30;2.88;;;1.92;;
58071;SDS011;60383;46.626;18.866;2023-03-31T11:30:31;2.60;;;1.80;;
58071;SDS011;60383;46.626;18.866;2023-03-31T11:33:12;4.43;;;1.50;;
58071;SDS011;60383;46.626;18.866;2023-03-31T11:39:03;2.67;;;1.75;;
58071;SDS011;60383;46.626;18.866;2023-03-31T11:41:42;4.03;;;1.58;;
58071;SDS011;60383;46.626;18.866;2023-03-31T11:44:14;3.30;;;1.58;;
58071;SDS011;60383;46.626;18.866;2023-03-31T11:46:43;3.65;;;1.70;;
58071;SDS011;60383;46.626;18.866;2023-03-31T11:51:55;3.35;;;1.83;;
58071;SDS011;60383;46.626;18.866;2023-03-31T11:57:30;4.32;;;1.70;;
58071;SDS011;60383;46.626;18.866;2023-03-31T12:00:05;3.25;;;1.77;;
58071;SDS011;60383;46.626;18.866;2023-03-31T12:02:38;4.03;;;2.50;;
58071;SDS011;60383;46.626;18.866;2023-03-31T12:05:25;4.47;;;1.63;;
58071;SDS011;60383;46.626;18.866;2023-03-31T12:11:16;2.83;;;1.70;;
58071;SDS011;60383;46.626;18.866;2023-03-31T12:13:52;3.28;;;1.70;;
58071;SDS011;60383;46.626;18.866;2023-03-31T12:19:10;3.70;;;1.70;;
58071;SDS011;60383;46.626;18.866;2023-03-31T12:21:49;2.78;;;1.65;;
58071;SDS011;60383;46.626;18.866;2023-03-31T12:24:22;3.63;;;1.83;;
58071;SDS011;60383;46.626;18.866;2023-03-31T12:26:50;5.00;;;1.60;;
58071;SDS011;60383;46.626;18.866;2023-03-31T12:31:52;6.13;;;2.28;;
58071;SDS011;60383;46.626;18.866;2023-03-31T12:34:21;2.35;;;1.60;;
58071;SDS011;60383;46.626;18.866;2023-03-31T12:37:01;2.72;;;1.63;;
58071;SDS011;60383;46.626;18.866;2023-03-31T12:50:30;3.35;;;1.90;;
58071;SDS011;60383;46.626;18.866;2023-03-31T12:55:55;4.20;;;1.52;;
58071;SDS011;60383;46.626;18.866;2023-03-31T13:01:35;3.13;;;1.50;;
58071;SDS011;60383;46.626;18.866;2023-03-31T13:03:50;4.20;;;2.22;;
58071;SDS011;60383;46.626;18.866;2023-03-31T13:09:04;6.75;;;2.00;;
58071;SDS011;60383;46.626;18.866;2023-03-31T13:16:32;3.03;;;1.30;;
58071;SDS011;60383;46.626;18.866;2023-03-31T13:18:59;4.47;;;1.70;;
58071;SDS011;60383;46.626;18.866;2023-03-31T13:21:25;6.90;;;1.80;;
58071;SDS011;60383;46.626;18.866;2023-03-31T13:23:51;2.33;;;1.42;;
58071;SDS011;60383;46.626;18.866;2023-03-31T13:29:09;4.72;;;1.65;;
58071;SDS011;60383;46.626;18.866;2023-03-31T13:34:40;2.90;;;1.70;;
58071;SDS011;60383;46.626;18.866;2023-03-31T13:48:18;4.03;;;2.08;;
58071;SDS011;60383;46.626;18.866;2023-03-31T13:56:25;3.38;;;2.10;;
58071;SDS011;60383;46.626;18.866;2023-03-31T13:59:11;4.03;;;2.15;;
58071;SDS011;60383;46.626;18.866;2023-03-31T14:04:32;6.57;;;2.58;;
58071;SDS011;60383;46.626;18.866;2023-03-31T14:07:07;2.90;;;1.77;;
58071;SDS011;60383;46.626;18.866;2023-03-31T14:09:39;5.38;;;1.95;;
58071;SDS011;60383;46.626;18.866;2023-03-31T14:14:47;3.10;;;1.83;;
58071;SDS011;60383;46.626;18.866;2023-03-31T14:17:17;4.57;;;1.85;;
58071;SDS011;60383;46.626;18.866;2023-03-31T14:25:18;4.45;;;2.05;;
58071;SDS011;60383;46.626;18.866;2023-03-31T14:35:32;4.35;;;2.00;;
58071;SDS011;60383;46.626;18.866;2023-03-31T14:38:09;4.10;;;1.75;;
58071;SDS011;60383;46.626;18.866;2023-03-31T14:40:43;5.32;;;2.72;;
58071;SDS011;60383;46.626;18.866;2023-03-31T14:43:19;3.30;;;2.13;;
58071;SDS011;60383;46.626;18.866;2023-03-31T14:45:47;4.35;;;2.40;;
58071;SDS011;60383;46.626;18.866;2023-03-31T14:48:21;4.47;;;2.08;;
58071;SDS011;60383;46.626;18.866;2023-03-31T14:50:47;6.65;;;3.60;;
58071;SDS011;60383;46.626;18.866;2023-03-31T14:53:13;3.30;;;1.80;;
58071;SDS011;60383;46.626;18.866;2023-03-31T14:55:47;4.53;;;2.60;;
58071;SDS011;60383;46.626;18.866;2023-03-31T14:58:13;2.13;;;1.73;;
58071;SDS011;60383;46.626;18.866;2023-03-31T15:00:48;3.35;;;1.63;;
58071;SDS011;60383;46.626;18.866;2023-03-31T15:03:14;5.60;;;1.90;;
58071;SDS011;60383;46.626;18.866;2023-03-31T15:05:41;3.80;;;1.73;;
58071;SDS011;60383;46.626;18.866;2023-03-31T15:08:18;4.90;;;1.77;;
58071;SDS011;60383;46.626;18.866;2023-03-31T15:10:50;4.22;;;1.90;;
58071;SDS011;60383;46.626;18.866;2023-03-31T15:13:20;4.40;;;2.28;;
58071;SDS011;60383;46.626;18.866;2023-03-31T15:15:58;6.07;;;1.90;;
58071;SDS011;60383;46.626;18.866;2023-03-31T15:18:24;2.10;;;1.42;;
58071;SDS011;60383;46.626;18.866;2023-03-31T15:20:51;4.47;;;1.77;;
58071;SDS011;60383;46.626;18.866;2023-03-31T15:23:27;13.70;;;2.33;;
58071;SDS011;60383;46.626;18.866;2023-03-31T15:25:55;3.58;;;2.00;;
58071;SDS011;60383;46.626;18.866;2023-03-31T15:28:23;3.20;;;1.65;;
58071;SDS011;60383;46.626;18.866;2023-03-31T15:30:52;3.10;;;1.90;;
58071;SDS011;60383;46.626;18.866;2023-03-31T15:33:20;3.45;;;1.98;;
58071;SDS011;60383;46.626;18.866;2023-03-31T15:35:53;5.50;;;2.20;;
58071;SDS011;60383;46.626;18.866;2023-03-31T15:38:18;3.67;;;2.17;;
58071;SDS011;60383;46.626;18.866;2023-03-31T15:40:45;4.80;;;1.88;;
58071;SDS011;60383;46.626;18.866;2023-03-31T15:43:17;2.10;;;1.42;;
58071;SDS011;60383;46.626;18.866;2023-03-31T15:45:56;4.55;;;2.30;;
58071;SDS011;60383;46.626;18.866;2023-03-31T15:48:33;2.58;;;1.60;;
58071;SDS011;60383;46.626;18.866;2023-03-31T15:51:46;4.35;;;2.28;;
58071;SDS011;60383;46.626;18.866;2023-03-31T15:53:52;3.47;;;1.98;;
58071;SDS011;60383;46.626;18.866;2023-03-31T15:56:29;2.97;;;1.70;;
58071;SDS011;60383;46.626;18.866;2023-03-31T15:59:05;2.28;;;1.50;;
58071;SDS011;60383;46.626;18.866;2023-03-31T16:01:47;4.10;;;1.73;;
58071;SDS011;60383;46.626;18.866;2023-03-31T16:04:14;7.15;;;2.25;;
58071;SDS011;60383;46.626;18.866;2023-03-31T16:06:44;5.80;;;1.85;;
58071;SDS011;60383;46.626;18.866;2023-03-31T16:09:13;2.72;;;1.60;;
58071;SDS011;60383;46.626;18.866;2023-03-31T16:11:41;4.82;;;1.90;;
58071;SDS011;60383;46.626;18.866;2023-03-31T16:14:19;2.40;;;1.50;;
58071;SDS011;60383;46.626;18.866;2023-03-31T16:16:47;2.72;;;1.73;;
58071;SDS011;60383;46.626;18.866;2023-03-31T16:19:16;3.85;;;1.70;;
58071;SDS011;60383;46.626;18.866;2023-03-31T16:21:46;3.35;;;1.58;;
58071;SDS011;60383;46.626;18.866;2023-03-31T16:24:17;4.47;;;1.25;;
58071;SDS011;60383;46.626;18.866;2023-03-31T16:26:44;4.60;;;2.10;;
58071;SDS011;60383;46.626;18.866;2023-03-31T16:29:18;2.53;;;1.60;;
58071;SDS011;60383;46.626;18.866;2023-03-31T16:31:45;4.18;;;1.58;;
58071;SDS011;60383;46.626;18.866;2023-03-31T16:34:11;3.78;;;2.10;;
58071;SDS011;60383;46.626;18.866;2023-03-31T16:36:36;7.90;;;2.30;;
58071;SDS011;60383;46.626;18.866;2023-03-31T16:39:02;4.38;;;1.98;;
58071;SDS011;60383;46.626;18.866;2023-03-31T16:41:32;3.97;;;2.20;;
58071;SDS011;60383;46.626;18.866;2023-03-31T16:46:25;4.13;;;1.92;;
58071;SDS011;60383;46.626;18.866;2023-03-31T16:48:51;4.13;;;1.60;;
58071;SDS011;60383;46.626;18.866;2023-03-31T16:51:17;5.80;;;1.60;;
58071;SDS011;60383;46.626;18.866;2023-03-31T16:53:44;4.22;;;1.67;;
58071;SDS011;60383;46.626;18.866;2023-03-31T16:56:11;5.82;;;1.90;;
58071;SDS011;60383;46.626;18.866;2023-03-31T16:58:38;5.13;;;2.30;;
58071;SDS011;60383;46.626;18.866;2023-03-31T17:01:04;6.38;;;2.00;;
58071;SDS011;60383;46.626;18.866;2023-03-31T17:03:31;4.55;;;1.80;;
58071;SDS011;60383;46.626;18.866;2023-03-31T17:06:02;4.82;;;1.95;;
58071;SDS011;60383;46.626;18.866;2023-03-31T17:08:30;5.55;;;2.20;;
58071;SDS011;60383;46.626;18.866;2023-03-31T17:11:29;5.07;;;2.45;;
58071;SDS011;60383;46.626;18.866;2023-03-31T17:13:48;6.35;;;3.00;;
58071;SDS011;60383;46.626;18.866;2023-03-31T17:16:15;8.98;;;3.83;;
58071;SDS011;60383;46.626;18.866;2023-03-31T17:18:42;8.45;;;3.40;;
58071;SDS011;60383;46.626;18.866;2023-03-31T17:21:09;5.68;;;2.67;;
58071;SDS011;60383;46.626;18.866;2023-03-31T17:23:37;4.50;;;2.35;;
58071;SDS011;60383;46.626;18.866;2023-03-31T17:26:03;7.85;;;3.00;;
58071;SDS011;60383;46.626;18.866;2023-03-31T17:28:30;3.70;;;2.42;;
58071;SDS011;60383;46.626;18.866;2023-03-31T17:30:57;4.43;;;2.17;;
58071;SDS011;60383;46.626;18.866;2023-03-31T17:33:23;3.85;;;2.00;;
58071;SDS011;60383;46.626;18.866;2023-03-31T17:35:53;5.40;;;1.95;;
58071;SDS011;60383;46.626;18.866;2023-03-31T17:38:20;4.00;;;1.98;;
58071;SDS011;60383;46.626;18.866;2023-03-31T17:40:46;4.28;;;2.00;;
58071;SDS011;60383;46.626;18.866;2023-03-31T17:43:12;5.88;;;2.20;;
58071;SDS011;60383;46.626;18.866;2023-03-31T17:45:38;5.53;;;2.17;;